Terminal Aerodrome Forecast
Issued by NWS

Home | Current Version | Previous Version | Text Only | Print | Product List | Glossary On
Versions: 1 2 3 4 5 6 7 8 9 10 11 12 13 14 15 16
645
FTUS44 KBMX 051120
TAFTOI
TAF
KTOI 051120Z 0512/0612 03004KT 1SM BR OVC002
      TEMPO 0512/0515 1/2SM FG
     FM051500 05005KT 4SM BR VCSH OVC004
     FM052100 07005KT 4SM SHRA BR OVC006
     FM060600 15007KT 4SM SHRA BR OVC007=

USA.gov is the U.S. government's official web portal to all federal, state and local government web resources and services.